Oak Shores, California
Current Conditions -  °F | °C
As of 9:53 AM on Sunday 21 Dec 2014 (Local Time) from KPRB Reporting Station
Moderate Fog Moderate Fog  
Wind Chill: 51°   Ceiling: 200
Heat Index: 51°   Visibility: 0.5mi
Dew Point: 49°   Wind: 3mph
Humidity: 92%   Direction: 50°NE
Pressure: 30.3"   Gusts: NA
Location:  35.8301°N, 120.993°W
Report Text: KPRB 211753Z AUTO 05003KT 1/2SM FG VV002 11/09 A3030 RMK AO2 SLP260 T01060094 10106 20094 53006 TSNO
Loading
Personal Weather Stations






























Interactive Weather Map New forecast layout! Learn more

10-Day Weather Forecast

Advertisements
Track Severe Weather on mobile